createdAt,value
2018-05-04T00:01:37.757Z,15.50
2018-05-04T00:04:05.900Z,15.40
2018-05-04T00:06:34.171Z,15.10
2018-05-04T00:09:02.422Z,15.10
2018-05-04T00:11:30.043Z,15.10
2018-05-04T00:13:57.527Z,15.10
2018-05-04T00:16:25.011Z,15.00
2018-05-04T00:18:53.288Z,15.00
2018-05-04T00:21:21.547Z,15.00
2018-05-04T00:23:49.139Z,15.00
2018-05-04T00:26:16.653Z,15.10
2018-05-04T00:28:44.176Z,15.00
2018-05-04T00:31:11.662Z,14.70
2018-05-04T00:33:39.159Z,14.60
2018-05-04T00:36:07.426Z,14.80
2018-05-04T00:38:35.711Z,14.80
2018-05-04T00:41:03.992Z,14.80
2018-05-04T00:43:31.483Z,14.80
2018-05-04T00:45:58.991Z,14.70
2018-05-04T00:48:27.268Z,14.70
2018-05-04T00:50:55.560Z,14.90
2018-05-04T00:53:23.045Z,14.80
2018-05-04T00:55:50.548Z,14.80
2018-05-04T00:58:18.833Z,14.80
2018-05-04T01:00:47.099Z,14.80
2018-05-04T01:03:15.376Z,14.70
2018-05-04T01:05:43.628Z,14.70
2018-05-04T01:08:11.213Z,14.70
2018-05-04T01:10:39.499Z,14.70
2018-05-04T01:13:07.056Z,14.60
2018-05-04T01:15:34.580Z,14.70
2018-05-04T01:18:02.166Z,14.70
2018-05-04T01:20:29.653Z,14.40
2018-05-04T01:22:57.197Z,14.20
2018-05-04T01:25:24.686Z,14.00
2018-05-04T01:27:52.178Z,14.00
2018-05-04T01:30:20.488Z,14.30
2018-05-04T01:32:47.976Z,14.30
2018-05-04T01:35:16.513Z,14.40
2018-05-04T01:37:44.014Z,14.50
2018-05-04T01:40:11.513Z,14.50
2018-05-04T01:42:39.799Z,14.50
2018-05-04T01:45:07.312Z,14.50
2018-05-04T01:47:34.815Z,14.60
2018-05-04T01:50:02.363Z,14.70
2018-05-04T01:52:29.923Z,14.60
2018-05-04T01:54:57.482Z,14.60
2018-05-04T01:57:25.031Z,14.30
2018-05-04T01:59:53.305Z,14.40
2018-05-04T02:02:21.564Z,14.40
2018-05-04T02:04:49.071Z,14.40
2018-05-04T02:07:16.566Z,14.50
2018-05-04T02:09:44.163Z,14.40
2018-05-04T02:12:11.714Z,14.50
2018-05-04T02:14:39.991Z,14.50
2018-05-04T02:17:07.556Z,14.50
2018-05-04T02:19:35.051Z,14.50
2018-05-04T02:22:02.545Z,14.30
2018-05-04T02:24:30.794Z,14.30
2018-05-04T02:26:58.396Z,14.20
2018-05-04T02:29:25.941Z,14.20
2018-05-04T02:31:54.333Z,14.40
2018-05-04T02:34:21.826Z,14.30
2018-05-04T02:36:49.330Z,14.40
2018-05-04T02:39:17.597Z,14.40
2018-05-04T02:41:45.883Z,14.30
2018-05-04T02:44:14.201Z,14.20
2018-05-04T02:46:41.708Z,14.10
2018-05-04T02:49:10.008Z,13.70
2018-05-04T02:51:37.512Z,13.60
2018-05-04T02:54:05.115Z,13.80
2018-05-04T02:56:32.619Z,13.90
2018-05-04T02:59:00.123Z,13.80
2018-05-04T03:01:28.404Z,13.80
2018-05-04T03:03:55.958Z,13.80
2018-05-04T03:06:24.226Z,13.40
2018-05-04T03:08:52.496Z,13.70
2018-05-04T03:11:20.762Z,13.80
2018-05-04T03:13:48.249Z,13.80
2018-05-04T03:16:15.759Z,14.00
2018-05-04T03:18:44.189Z,14.10
2018-05-04T03:21:11.726Z,14.20
2018-05-04T03:23:39.244Z,14.30
2018-05-04T03:26:06.741Z,14.30
2018-05-04T03:28:35.026Z,14.20
2018-05-04T03:31:02.550Z,14.10
2018-05-04T03:33:30.140Z,14.20
2018-05-04T03:35:57.653Z,14.20
2018-05-04T03:38:25.167Z,13.90
2018-05-04T03:40:52.660Z,13.90
2018-05-04T03:43:20.195Z,14.00
2018-05-04T03:45:47.712Z,14.00
2018-05-04T03:48:15.978Z,14.10
2018-05-04T03:50:44.272Z,13.90
2018-05-04T03:53:11.827Z,13.80
2018-05-04T03:55:39.356Z,13.90
2018-05-04T03:58:18.797Z,13.90
2018-05-04T04:00:58.268Z,14.10
2018-05-04T04:03:37.618Z,14.00
2018-05-04T04:06:05.124Z,14.00
2018-05-04T04:08:32.698Z,14.10
2018-05-04T04:11:00.999Z,13.80
2018-05-04T04:13:28.502Z,13.70
2018-05-04T04:15:56.096Z,13.80
2018-05-04T04:18:23.605Z,13.80
2018-05-04T04:20:51.098Z,13.70
2018-05-04T04:23:19.388Z,13.70
2018-05-04T04:25:46.915Z,13.70
2018-05-04T04:28:15.194Z,13.60
2018-05-04T04:30:43.458Z,13.50
2018-05-04T04:33:11.032Z,13.40
2018-05-04T04:35:39.304Z,13.70
2018-05-04T04:38:07.582Z,13.70
2018-05-04T04:40:35.877Z,13.60
2018-05-04T04:43:03.433Z,13.50
2018-05-04T04:45:31.004Z,13.70
2018-05-04T04:47:58.501Z,13.90
2018-05-04T04:50:26.001Z,14.10
2018-05-04T04:52:53.549Z,14.10
2018-05-04T04:55:22.318Z,13.90
2018-05-04T04:57:49.889Z,13.80
2018-05-04T05:00:18.160Z,14.20
2018-05-04T05:02:46.419Z,13.90
2018-05-04T05:05:13.929Z,13.90
2018-05-04T05:07:41.469Z,13.80
2018-05-04T05:10:09.023Z,13.80
2018-05-04T05:12:36.506Z,13.70
2018-05-04T05:15:03.998Z,13.70
2018-05-04T05:17:31.594Z,13.60
2018-05-04T05:19:59.094Z,13.60
2018-05-04T05:22:26.620Z,13.60
2018-05-04T05:24:54.163Z,13.80
2018-05-04T05:27:21.723Z,14.00
2018-05-04T05:29:49.280Z,13.90
2018-05-04T05:32:16.785Z,14.10
2018-05-04T05:34:44.300Z,14.30
2018-05-04T05:37:11.869Z,14.40
2018-05-04T05:39:40.233Z,14.00
2018-05-04T05:42:07.739Z,13.90
2018-05-04T05:44:35.250Z,13.60
2018-05-04T05:47:02.734Z,13.40
2018-05-04T05:49:30.247Z,13.40
2018-05-04T05:51:58.596Z,13.60
2018-05-04T05:54:26.807Z,13.50
2018-05-04T05:56:54.302Z,13.50
2018-05-04T05:59:21.815Z,13.70
2018-05-04T06:01:49.346Z,13.60
2018-05-04T06:04:16.848Z,13.80
2018-05-04T06:06:44.338Z,13.60
2018-05-04T06:09:11.863Z,13.60
2018-05-04T06:11:39.360Z,13.70
2018-05-04T06:14:06.855Z,13.60
2018-05-04T06:16:35.136Z,13.90
2018-05-04T06:19:02.639Z,13.90
2018-05-04T06:21:30.267Z,13.70
2018-05-04T06:23:57.803Z,13.70
2018-05-04T06:26:25.306Z,13.60
2018-05-04T06:28:52.803Z,13.60
2018-05-04T06:31:21.092Z,13.60
2018-05-04T06:33:48.636Z,13.60
2018-05-04T06:36:16.139Z,13.60
2018-05-04T06:38:43.643Z,13.60
2018-05-04T06:41:11.907Z,13.50
2018-05-04T06:43:39.410Z,13.50
2018-05-04T06:46:06.956Z,13.60
2018-05-04T06:48:35.264Z,14.10
2018-05-04T06:51:02.794Z,14.00
2018-05-04T06:53:30.304Z,14.20
2018-05-04T06:55:57.814Z,14.20
2018-05-04T06:58:25.384Z,14.10
2018-05-04T07:00:52.912Z,14.00
2018-05-04T07:03:20.432Z,14.00
2018-05-04T07:05:47.955Z,14.30
2018-05-04T07:08:15.450Z,14.40
2018-05-04T07:10:42.968Z,14.30
2018-05-04T07:13:10.466Z,14.40
2018-05-04T07:15:37.984Z,14.50
2018-05-04T07:18:05.508Z,14.50
2018-05-04T07:20:33.083Z,14.20
2018-05-04T07:23:00.611Z,14.40
2018-05-04T07:25:28.891Z,14.50
2018-05-04T07:27:57.146Z,14.60
2018-05-04T07:30:24.736Z,14.60
2018-05-04T07:32:52.238Z,14.50
2018-05-04T07:35:19.847Z,14.60
2018-05-04T07:37:49.033Z,14.50
2018-05-04T07:40:17.288Z,14.80
2018-05-04T07:42:44.812Z,14.70
2018-05-04T07:45:12.302Z,14.90
2018-05-04T07:47:39.815Z,14.90
2018-05-04T07:50:07.338Z,14.70
2018-05-04T07:52:35.589Z,14.50
2018-05-04T07:55:03.114Z,14.40
2018-05-04T07:57:30.602Z,14.40
2018-05-04T07:59:58.097Z,14.30
2018-05-04T08:02:25.595Z,14.50
2018-05-04T08:04:53.208Z,15.20
2018-05-04T08:07:20.716Z,16.10
2018-05-04T08:09:48.213Z,15.80
2018-05-04T08:12:16.471Z,15.80
2018-05-04T08:14:44.749Z,16.10
2018-05-04T08:17:13.029Z,16.50
2018-05-04T08:19:41.315Z,16.30
2018-05-04T08:22:08.874Z,16.30
2018-05-04T08:24:36.380Z,16.10
2018-05-04T08:27:04.008Z,15.80
2018-05-04T08:29:31.519Z,15.70
2018-05-04T08:31:59.019Z,15.80
2018-05-04T08:34:26.522Z,16.20
2018-05-04T08:36:54.035Z,16.10
2018-05-04T08:39:21.533Z,15.90
2018-05-04T08:41:49.156Z,16.00
2018-05-04T08:44:16.792Z,16.10
2018-05-04T08:46:44.294Z,15.80
2018-05-04T08:49:11.812Z,15.90
2018-05-04T08:51:39.309Z,16.00
2018-05-04T08:54:06.914Z,15.80
2018-05-04T08:56:35.195Z,16.30
2018-05-04T08:59:02.700Z,16.30
2018-05-04T09:01:30.199Z,16.20
2018-05-04T09:03:58.471Z,15.60
2018-05-04T09:06:26.755Z,15.50
2018-05-04T09:08:54.256Z,15.50
2018-05-04T09:11:21.764Z,15.40
2018-05-04T09:13:50.043Z,15.20
2018-05-04T09:16:17.663Z,15.20
2018-05-04T09:18:45.105Z,15.20
2018-05-04T09:21:12.703Z,15.10
2018-05-04T09:23:40.953Z,15.10
2018-05-04T09:26:08.543Z,15.10
2018-05-04T09:28:36.826Z,15.10
2018-05-04T09:31:04.360Z,15.00
2018-05-04T09:33:31.820Z,15.20
2018-05-04T09:36:00.097Z,15.00
2018-05-04T09:38:28.394Z,15.00
2018-05-04T09:40:55.895Z,14.90
2018-05-04T09:43:23.421Z,15.10
2018-05-04T09:45:50.921Z,15.00
2018-05-04T09:48:18.619Z,15.10
2018-05-04T09:50:46.137Z,15.10
2018-05-04T09:53:13.636Z,14.90
2018-05-04T09:55:41.138Z,14.80
2018-05-04T09:58:08.741Z,14.90
2018-05-04T10:00:37.011Z,15.10
2018-05-04T10:03:05.287Z,15.10
2018-05-04T10:05:33.572Z,15.00
2018-05-04T10:08:01.095Z,15.00
2018-05-04T10:10:28.595Z,15.10
2018-05-04T10:12:56.104Z,15.00
2018-05-04T10:15:23.730Z,15.10
2018-05-04T10:17:51.276Z,15.30
2018-05-04T10:20:18.778Z,15.20
2018-05-04T10:22:46.278Z,15.10
2018-05-04T10:25:13.758Z,15.30
2018-05-04T10:27:41.265Z,15.40
2018-05-04T10:30:09.544Z,15.20
2018-05-04T10:32:37.826Z,15.20
2018-05-04T10:35:06.100Z,15.40
2018-05-04T10:37:34.349Z,15.60
2018-05-04T10:40:01.929Z,15.50
2018-05-04T10:42:30.181Z,15.60
2018-05-04T10:44:57.689Z,15.50
2018-05-04T10:47:25.176Z,15.70
2018-05-04T10:49:52.661Z,15.80
2018-05-04T10:52:20.937Z,15.90
2018-05-04T10:54:49.189Z,15.90
2018-05-04T10:57:16.713Z,15.80
2018-05-04T10:59:44.190Z,16.00
2018-05-04T11:02:11.699Z,16.00
2018-05-04T11:04:39.960Z,15.90
2018-05-04T11:07:08.226Z,15.80
2018-05-04T11:09:35.738Z,15.80
2018-05-04T11:12:03.337Z,15.90
2018-05-04T11:14:30.790Z,16.00
2018-05-04T11:16:58.271Z,16.10
2018-05-04T11:19:26.581Z,16.20
2018-05-04T11:21:54.093Z,16.20
2018-05-04T11:24:22.355Z,16.30
2018-05-04T11:26:50.715Z,16.40
2018-05-04T11:29:18.214Z,16.40
2018-05-04T11:31:46.474Z,16.80
2018-05-04T11:34:14.764Z,16.90
2018-05-04T11:36:42.318Z,16.90
2018-05-04T11:39:10.577Z,16.90
2018-05-04T11:41:38.858Z,16.60
2018-05-04T11:44:07.113Z,16.40
2018-05-04T11:46:34.649Z,16.40
2018-05-04T11:49:02.151Z,16.40
2018-05-04T11:51:30.529Z,16.70
2018-05-04T11:53:58.958Z,16.80
2018-05-04T11:56:26.525Z,16.70
2018-05-04T11:58:54.163Z,16.70
2018-05-04T12:01:21.691Z,16.60
2018-05-04T12:03:49.183Z,16.60
2018-05-04T12:06:16.695Z,16.50
2018-05-04T12:08:44.983Z,16.70
2018-05-04T12:11:12.541Z,16.70
2018-05-04T12:13:40.075Z,16.70
2018-05-04T12:16:08.346Z,16.50
2018-05-04T12:18:36.604Z,16.60
2018-05-04T12:21:04.195Z,16.60
2018-05-04T12:23:31.704Z,16.70
2018-05-04T12:25:59.194Z,16.80
2018-05-04T12:28:27.486Z,16.90
2018-05-04T12:30:54.974Z,16.90
2018-05-04T12:33:22.478Z,17.00
2018-05-04T12:35:50.064Z,16.90
2018-05-04T12:38:17.623Z,16.80
2018-05-04T12:40:45.170Z,16.80
2018-05-04T12:43:13.442Z,16.80
2018-05-04T12:45:41.826Z,16.80
2018-05-04T12:48:09.323Z,16.80
2018-05-04T12:50:36.938Z,17.00
2018-05-04T12:53:05.291Z,17.10
2018-05-04T12:55:32.728Z,17.00
2018-05-04T12:58:00.229Z,16.90
2018-05-04T13:00:27.740Z,17.00
2018-05-04T13:02:55.237Z,17.00
2018-05-04T13:05:23.504Z,17.30
2018-05-04T13:07:51.774Z,17.30
2018-05-04T13:10:20.068Z,17.30
2018-05-04T13:12:47.583Z,17.30
2018-05-04T13:15:15.084Z,17.40
2018-05-04T13:17:42.607Z,17.50
2018-05-04T13:20:10.207Z,17.50
2018-05-04T13:22:37.723Z,17.50
2018-05-04T13:25:05.240Z,17.70
2018-05-04T13:27:32.747Z,17.80
2018-05-04T13:30:02.024Z,18.20
2018-05-04T13:32:29.528Z,18.10
2018-05-04T13:34:57.040Z,18.30
2018-05-04T13:37:24.539Z,18.10
2018-05-04T13:39:52.092Z,17.90
2018-05-04T13:42:19.660Z,18.20
2018-05-04T13:44:47.220Z,18.30
2018-05-04T13:47:14.709Z,18.10
2018-05-04T13:49:42.205Z,18.30
2018-05-04T13:52:10.494Z,18.20
2018-05-04T13:54:38.074Z,18.10
2018-05-04T13:57:05.576Z,18.30
2018-05-04T13:59:33.073Z,18.30
2018-05-04T14:02:00.586Z,18.20
2018-05-04T14:04:28.105Z,18.20
2018-05-04T14:06:55.623Z,18.30
2018-05-04T14:09:23.884Z,18.10
2018-05-04T14:11:51.386Z,18.00
2018-05-04T14:14:18.919Z,18.20
2018-05-04T14:16:47.218Z,18.50
2018-05-04T14:19:14.711Z,18.40
2018-05-04T14:21:42.217Z,18.40
2018-05-04T14:24:09.730Z,18.40
2018-05-04T14:26:37.263Z,18.50
2018-05-04T14:29:04.770Z,18.70
2018-05-04T14:31:33.032Z,18.90
2018-05-04T14:34:00.532Z,18.80
2018-05-04T14:36:28.051Z,18.60
2018-05-04T14:38:56.338Z,18.60
2018-05-04T14:41:24.604Z,18.50
2018-05-04T14:43:52.862Z,18.80
2018-05-04T14:46:20.377Z,18.70
2018-05-04T14:48:47.912Z,18.90
2018-05-04T14:51:15.464Z,18.90
2018-05-04T14:53:42.998Z,18.90
2018-05-04T14:56:10.485Z,18.90
2018-05-04T14:58:38.122Z,18.80
2018-05-04T15:01:05.584Z,18.80
2018-05-04T15:03:33.874Z,19.00
2018-05-04T15:06:01.380Z,19.00
2018-05-04T15:08:28.900Z,19.30
2018-05-04T15:10:56.386Z,18.80
2018-05-04T15:13:23.898Z,18.60
2018-05-04T15:15:51.394Z,18.70
2018-05-04T15:18:18.913Z,18.80
2018-05-04T15:20:46.423Z,18.60
2018-05-04T15:23:13.914Z,18.50
2018-05-04T15:25:42.214Z,18.70
2018-05-04T15:28:09.714Z,18.60
2018-05-04T15:30:37.307Z,18.60
2018-05-04T15:33:04.874Z,18.60
2018-05-04T15:35:32.418Z,18.60
2018-05-04T15:38:00.703Z,18.60
2018-05-04T15:40:28.294Z,18.60
2018-05-04T15:42:56.554Z,18.50
2018-05-04T15:45:24.044Z,18.50
2018-05-04T15:47:51.561Z,18.50
2018-05-04T15:50:24.822Z,18.60
2018-05-04T15:52:53.133Z,18.80
2018-05-04T15:55:20.632Z,18.70
2018-05-04T15:57:48.219Z,18.70
2018-05-04T16:00:16.614Z,18.50
2018-05-04T16:02:44.125Z,18.40
2018-05-04T16:05:11.690Z,18.70
2018-05-04T16:07:39.971Z,18.60
2018-05-04T16:10:07.553Z,18.50
2018-05-04T16:12:35.146Z,18.50
2018-05-04T16:15:02.647Z,18.30
2018-05-04T16:17:30.926Z,18.40
2018-05-04T16:19:59.216Z,18.50
2018-05-04T16:22:26.895Z,18.40
2018-05-04T16:24:54.418Z,18.50
2018-05-04T16:27:22.695Z,18.40
2018-05-04T16:29:51.029Z,18.20
2018-05-04T16:32:18.557Z,18.20
2018-05-04T16:34:46.054Z,18.20
2018-05-04T16:37:13.572Z,18.30
2018-05-04T16:39:41.104Z,18.50
2018-05-04T16:42:09.361Z,18.50
2018-05-04T16:44:36.860Z,18.50
2018-05-04T16:47:10.129Z,18.30
2018-05-04T16:49:38.418Z,18.30
2018-05-04T16:52:05.937Z,18.20
2018-05-04T16:54:33.438Z,18.20
2018-05-04T16:57:00.940Z,18.00
2018-05-04T16:59:28.451Z,18.00
2018-05-04T17:01:55.957Z,18.00
2018-05-04T17:04:23.475Z,18.00
2018-05-04T17:06:50.958Z,18.00
2018-05-04T17:09:18.453Z,17.90
2018-05-04T17:11:46.752Z,17.70
2018-05-04T17:14:14.259Z,17.60
2018-05-04T17:16:41.752Z,17.60
2018-05-04T17:19:09.250Z,17.60
2018-05-04T17:21:36.740Z,17.60
2018-05-04T17:24:05.044Z,17.70
2018-05-04T17:26:32.553Z,17.60
2018-05-04T17:29:00.626Z,17.70
2018-05-04T17:31:28.138Z,17.60
2018-05-04T17:33:55.678Z,17.70
2018-05-04T17:36:23.166Z,17.70
2018-05-04T17:38:50.686Z,17.60
2018-05-04T17:41:18.218Z,17.50
2018-05-04T17:43:46.513Z,17.50
2018-05-04T17:46:14.810Z,17.50
2018-05-04T17:48:42.301Z,17.40
2018-05-04T17:51:09.810Z,17.40
2018-05-04T17:53:37.297Z,17.60
2018-05-04T17:56:04.809Z,17.40
2018-05-04T17:58:33.070Z,17.30
2018-05-04T18:01:00.669Z,17.30
2018-05-04T18:03:28.213Z,17.20
2018-05-04T18:05:55.752Z,17.20
2018-05-04T18:08:24.064Z,17.30
2018-05-04T18:10:51.559Z,17.20
2018-05-04T18:13:19.076Z,17.10
2018-05-04T18:15:46.566Z,17.20
2018-05-04T18:18:14.075Z,17.20
2018-05-04T18:20:41.611Z,17.40
2018-05-04T18:23:09.546Z,17.20
2018-05-04T18:25:37.056Z,17.10
2018-05-04T18:28:04.566Z,16.90
2018-05-04T18:30:32.070Z,16.90
2018-05-04T18:32:59.657Z,16.80
2018-05-04T18:35:27.228Z,16.90
2018-05-04T18:37:54.853Z,16.70
2018-05-04T18:40:22.359Z,16.90
2018-05-04T18:42:49.978Z,16.80
2018-05-04T18:45:17.616Z,16.70
2018-05-04T18:47:45.873Z,16.60
2018-05-04T18:50:14.128Z,16.80
2018-05-04T18:52:41.641Z,16.70
2018-05-04T18:55:09.144Z,16.70
2018-05-04T18:57:36.648Z,16.60
2018-05-04T19:00:04.167Z,16.60
2018-05-04T19:02:37.246Z,16.60
2018-05-04T19:05:04.742Z,16.70
2018-05-04T19:07:32.258Z,16.70
2018-05-04T19:09:59.754Z,16.50
2018-05-04T19:12:27.301Z,16.60
2018-05-04T19:14:55.563Z,16.50
2018-05-04T19:17:23.857Z,16.50
2018-05-04T19:19:51.352Z,16.50
2018-05-04T19:22:18.879Z,16.60
2018-05-04T19:24:46.395Z,16.70
2018-05-04T19:27:13.983Z,16.70
2018-05-04T19:29:41.500Z,16.70
2018-05-04T19:32:09.001Z,16.70
2018-05-04T19:34:36.523Z,16.70
2018-05-04T19:37:04.012Z,16.70
2018-05-04T19:39:31.727Z,16.80
2018-05-04T19:41:59.365Z,16.90
2018-05-04T19:44:26.926Z,16.80
2018-05-04T19:46:55.225Z,16.70
2018-05-04T19:49:22.769Z,16.60
2018-05-04T19:51:50.272Z,16.70
2018-05-04T19:54:18.539Z,16.60
2018-05-04T19:56:46.845Z,16.70
2018-05-04T19:59:14.361Z,16.60
2018-05-04T20:01:41.899Z,16.50
2018-05-04T20:04:09.409Z,16.60
2018-05-04T20:06:36.914Z,16.60
2018-05-04T20:09:05.613Z,16.70
2018-05-04T20:11:33.123Z,16.50
2018-05-04T20:14:00.642Z,16.50
2018-05-04T20:16:28.905Z,16.50
2018-05-04T20:18:56.526Z,16.40
2018-05-04T20:21:24.014Z,16.50
2018-05-04T20:23:51.534Z,16.60
2018-05-04T20:26:19.055Z,16.40
2018-05-04T20:28:46.608Z,16.40
2018-05-04T20:31:14.932Z,16.20
2018-05-04T20:33:42.557Z,16.10
2018-05-04T20:36:10.042Z,16.20
2018-05-04T20:38:37.550Z,16.10
2018-05-04T20:41:05.137Z,16.10
2018-05-04T20:43:32.679Z,16.20
2018-05-04T20:46:00.179Z,16.20
2018-05-04T20:48:27.777Z,16.20
2018-05-04T20:50:56.058Z,16.10
2018-05-04T20:53:24.323Z,16.10
2018-05-04T20:55:52.592Z,16.20
2018-05-04T20:58:20.083Z,16.10
2018-05-04T21:00:47.582Z,16.00
2018-05-04T21:03:15.082Z,16.00
2018-05-04T21:05:43.454Z,16.10
2018-05-04T21:08:11.786Z,16.00
2018-05-04T21:10:39.400Z,15.90
2018-05-04T21:13:06.912Z,16.00
2018-05-04T21:15:34.412Z,16.00
2018-05-04T21:18:01.945Z,16.00
2018-05-04T21:20:29.449Z,16.10
2018-05-04T21:22:57.727Z,16.20
2018-05-04T21:25:25.235Z,16.10
2018-05-04T21:27:53.531Z,16.20
2018-05-04T21:30:21.037Z,16.20
2018-05-04T21:32:48.704Z,16.30
2018-05-04T21:35:16.324Z,16.40
2018-05-04T21:37:43.828Z,16.20
2018-05-04T21:40:11.352Z,16.00
2018-05-04T21:42:38.842Z,15.80
2018-05-04T21:45:06.334Z,15.90
2018-05-04T21:47:33.882Z,16.10
2018-05-04T21:50:02.160Z,16.30
2018-05-04T21:52:29.648Z,16.20
2018-05-04T21:54:57.154Z,16.10
2018-05-04T21:57:25.442Z,16.00
2018-05-04T21:59:53.727Z,15.90
2018-05-04T22:02:21.247Z,15.90
2018-05-04T22:04:48.837Z,15.90
2018-05-04T22:07:16.275Z,15.90
2018-05-04T22:09:44.546Z,15.70
2018-05-04T22:12:12.865Z,15.90
2018-05-04T22:14:40.404Z,15.80
2018-05-04T22:17:07.890Z,15.80
2018-05-04T22:19:35.429Z,15.90
2018-05-04T22:22:02.933Z,15.90
2018-05-04T22:24:30.433Z,15.90
2018-05-04T22:26:57.964Z,15.70
2018-05-04T22:29:26.233Z,15.90
2018-05-04T22:31:53.750Z,15.80
2018-05-04T22:34:21.255Z,15.90
2018-05-04T22:36:49.518Z,15.70
2018-05-04T22:39:17.126Z,15.70
2018-05-04T22:41:44.667Z,15.70
2018-05-04T22:44:12.235Z,15.70
2018-05-04T22:46:39.795Z,15.80
2018-05-04T22:49:07.344Z,15.90
2018-05-04T22:51:34.834Z,15.80
2018-05-04T22:54:02.332Z,15.90
2018-05-04T22:56:30.627Z,15.90
2018-05-04T22:58:58.146Z,15.90
2018-05-04T23:01:25.661Z,15.90
2018-05-04T23:03:53.172Z,15.70
2018-05-04T23:06:20.733Z,15.70
2018-05-04T23:08:48.995Z,15.90
2018-05-04T23:11:16.517Z,15.80
2018-05-04T23:13:44.020Z,15.80
2018-05-04T23:16:12.275Z,15.70
2018-05-04T23:18:39.785Z,15.70
2018-05-04T23:21:07.289Z,15.80
2018-05-04T23:23:34.800Z,15.90
2018-05-04T23:26:02.316Z,16.00
2018-05-04T23:28:29.859Z,15.80
2018-05-04T23:30:57.349Z,15.80
2018-05-04T23:33:25.620Z,15.70
2018-05-04T23:35:53.882Z,15.60
2018-05-04T23:38:21.365Z,15.50
2018-05-04T23:40:48.885Z,15.60
2018-05-04T23:43:16.476Z,15.60
2018-05-04T23:45:44.038Z,15.50
2018-05-04T23:48:11.597Z,15.60
2018-05-04T23:50:39.137Z,15.60
2018-05-04T23:53:06.655Z,15.80
2018-05-04T23:55:34.149Z,15.70
2018-05-04T23:58:02.443Z,15.40
